Norwegian Sun — C6RN3 — position and weather

sailwx.info

Track history (hours):
 
Tides and Currents Weather Stations Pressure Air Temp Water Temp Dewpoint Dewpoint Depression Visibility Wind Speed Wind Dir Waves Ship Positions

Norwegian Sun

Operator: Norwegian Cruise Line

Last reported at 2017-Sep-26 14:30 UTC. Time now 2017-Sep-26 14:54 UTC.
Position N 51°17' W 129°00'.

Type: Passenger vessel. MMSI: 311109000.

Date/timePositionNaut miles runAvg speedWind from/ knotsBaromVisibWave heightAir tempDewpointWater temp
2017-Sep-26 14:30N 51°17' W 129°00'918.1
2017-Sep-26 14:00N 51°12' W 128°49'917.8
2017-Sep-26 13:30N 51°08' W 128°36'816.9
2017-Sep-26 13:01N 51°04' W 128°24'917.2
2017-Sep-26 12:30N 51°03' W 128°10'917.7
2017-Sep-26 12:00N 51°01' W 127°57'815.2
2017-Sep-26 11:30N 50°58' W 127°45'917.9
2017-Sep-26 11:00N 50°52' W 127°35'918.0
2017-Sep-26 10:30N 50°49' W 127°22'918.5
2017-Sep-26 10:00N 50°45' W 127°08'918.1
2017-Sep-26 09:30N 50°42' W 126°55'1018.3
2017-Sep-26 08:58N 50°35' W 126°43'1717.0
2017-Sep-26 08:00N 50°30' W 126°18'3119.1 160 / 131022.0 13.011.314.0
2017-Sep-26 06:23N 50°21' W 125°32'615.1
2017-Sep-26 05:59N 50°17' W 125°25'817.5
2017-Sep-26 05:30N 50°09' W 125°21'713.4
2017-Sep-26 05:00N 50°04' W 125°15'816.3
2017-Sep-26 04:30N 49°57' W 125°08'1019.7
2017-Sep-26 04:00N 49°51' W 124°57'1020.8
2017-Sep-26 03:30N 49°44' W 124°44'1121.8
2017-Sep-26 03:00N 49°38' W 124°30'1121.7
2017-Sep-26 02:30N 49°32' W 124°16'1121.5
2017-Sep-26 02:00N 49°27' W 124°01'1121.8
2017-Sep-26 01:30N 49°24' W 123°45'1121.7
2017-Sep-26 01:00N 49°20' W 123°30'1020.5
2017-Sep-26 00:30N 49°19' W 123°14'510.8
2017-Sep-26 00:00N 49°18' W 123°06'0 0.4
2017-Sep-25 23:30N 49°17' W 123°06'0 0.0
2017-Sep-25 23:00N 49°17' W 123°06'0 0.0
2017-Sep-25 22:30N 49°17' W 123°06'0 0.0
2017-Sep-25 22:00N 49°17' W 123°06'0 0.0
2017-Sep-25 21:30N 49°17' W 123°06'0 0.0
2017-Sep-25 21:00N 49°17' W 123°06'0 0.0
2017-Sep-25 20:30N 49°17' W 123°06'0 0.0
2017-Sep-25 20:00N 49°17' W 123°06'0 0.0
2017-Sep-25 19:30N 49°17' W 123°06'0 0.0
2017-Sep-25 19:00N 49°17' W 123°06'0 0.0
2017-Sep-25 18:30N 49°17' W 123°06'0 0.0
2017-Sep-25 18:00N 49°17' W 123°06'0 0.0
2017-Sep-25 17:30N 49°17' W 123°06'0 0.0
2017-Sep-25 17:00N 49°17' W 123°06'0 0.0
2017-Sep-25 16:30N 49°17' W 123°06'0 0.0
2017-Sep-25 16:00N 49°17' W 123°06'0 0.0
2017-Sep-25 15:30N 49°17' W 123°06'0 0.0
2017-Sep-25 15:00N 49°17' W 123°06'0 0.0
2017-Sep-25 14:30N 49°17' W 123°06'0 0.0
2017-Sep-25 14:00N 49°17' W 123°06'1 2.0
2017-Sep-25 13:30N 49°18' W 123°07'5 9.4
2017-Sep-25 13:00N 49°19' W 123°14'5 9.2
2017-Sep-25 12:30N 49°19' W 123°21'5 9.3
2017-Sep-25 12:00N 49°19' W 123°28'5 9.3
2017-Sep-25 11:30N 49°20' W 123°35'5 9.5
2017-Sep-25 11:00N 49°21' W 123°42'5 9.1
2017-Sep-25 10:30N 49°22' W 123°49'5 9.1
2017-Sep-25 10:00N 49°22' W 123°56'5298.9
2017-Sep-25 10:00N 49°18' W 123°54'815.9 130 / 13 10.8 15.013.316.0
2017-Sep-25 09:30N 49°23' W 124°03'5 9.3
2017-Sep-25 09:00N 49°24' W 124°10'5 9.4
2017-Sep-25 08:30N 49°25' W 124°17'5 9.3
2017-Sep-25 08:00N 49°27' W 124°23'5 9.2
2017-Sep-25 07:30N 49°30' W 124°29'612.1
2017-Sep-25 07:01N 49°34' W 124°35'714.1
2017-Sep-25 06:30N 49°40' W 124°42'713.8
2017-Sep-25 06:00N 49°45' W 124°50'713.8
2017-Sep-25 05:30N 49°50' W 124°57'713.5
2017-Sep-25 05:00N 49°54' W 125°05'713.1
2017-Sep-25 04:30N 49°59' W 125°12'612.4
2017-Sep-25 04:00N 50°05' W 125°16'612.9
2017-Sep-25 03:30N 50°10' W 125°22'917.4
2017-Sep-25 03:01N 50°18' W 125°25'1415.8
2017-Sep-25 02:07N 50°22' W 125°46'3617.9
2017-Sep-25 00:08N 50°32' W 126°40'414.3
2017-Sep-24 23:52N 50°35' W 126°42'817.3
2017-Sep-24 23:24N 50°40' W 126°52'818.3
2017-Sep-24 22:59N 50°43' W 127°03'918.1
2017-Sep-24 22:30N 50°46' W 127°16'918.0
2017-Sep-24 22:01N 50°50' W 127°29'918.0
2017-Sep-24 21:30N 50°55' W 127°41'714.9
2017-Sep-24 21:00N 50°59' W 127°50'815.2
2017-Sep-24 20:30N 51°02' W 128°02'917.7
2017-Sep-24 20:00N 51°05' W 128°15'917.4
2017-Sep-24 19:31N 51°08' W 128°28'917.4
2017-Sep-24 19:01N 51°11' W 128°41'917.3
2017-Sep-24 18:31N 51°14' W 128°54'917.2
2017-Sep-24 18:01N 51°18' W 129°06'816.4
2017-Sep-24 17:30N 51°24' W 129°15'816.6
2017-Sep-24 17:00N 51°31' W 129°22'816.0
2017-Sep-24 16:30N 51°38' W 129°29'918.7
2017-Sep-24 16:00N 51°45' W 129°37'1019.4
2017-Sep-24 15:30N 51°54' W 129°46'1119.3
2017-Sep-24 14:57N 52°03' W 129°54'1219.5
2017-Sep-24 14:21N 52°13' W 130°03'719.4
2017-Sep-24 14:00N 52°19' W 130°08'1019.9
2017-Sep-24 13:30N 52°29' W 130°15'1019.7
2017-Sep-24 13:00N 52°37' W 130°21'1019.6
2017-Sep-24 12:31N 52°46' W 130°28'1219.5
2017-Sep-24 11:54N 52°57' W 130°37'3318.9
2017-Sep-24 10:10N 53°26' W 131°00'318.3
2017-Sep-24 09:59N 53°30' W 131°02'918.1
2017-Sep-24 09:31N 53°38' W 131°03'918.6
2017-Sep-24 09:00N 53°48' W 131°03'918.9
2017-Sep-24 08:30N 53°57' W 131°03'1019.1
2017-Sep-24 08:01N 54°06' W 131°04'918.9
2017-Sep-24 07:30N 54°16' W 131°04'1019.2
2017-Sep-24 07:00N 54°25' W 131°10'918.0
2017-Sep-24 06:30N 54°33' W 131°16'916.3
2017-Sep-24 05:57N 54°42' W 131°11'817.5
2017-Sep-24 05:30N 54°49' W 131°05'  
2017-Sep-20 03:10N 54°23' W 131°37'318.2
2017-Sep-20 03:00N 54°23' W 131°32'918.7
2017-Sep-20 02:30N 54°22' W 131°16'918.4
2017-Sep-20 02:01N 54°16' W 131°04'1019.8
2017-Sep-20 01:30N 54°06' W 131°04'1019.9
2017-Sep-20 01:00N 53°56' W 131°03'1019.5
2017-Sep-20 00:30N 53°47' W 131°03'1019.2
2017-Sep-20 00:00N 53°37' W 131°02'1019.2
2017-Sep-19 23:30N 53°27' W 131°02'1018.9
2017-Sep-19 22:58N 53°18' W 130°57'1019.9
2017-Sep-19 22:30N 53°10' W 130°49'9919.8
2017-Sep-19 17:29N 51°42' W 129°33'1019.8
2017-Sep-19 17:00N 51°34' W 129°25'1020.2
2017-Sep-19 16:30N 51°25' W 129°16'918.6
2017-Sep-19 16:00N 51°19' W 129°05'816.6
2017-Sep-19 15:31N 51°13' W 128°57'816.0
2017-Sep-19 15:00N 51°10' W 128°44'816.0
2017-Sep-19 14:30N 51°07' W 128°32'816.0
2017-Sep-19 14:01N 51°04' W 128°21'815.6
2017-Sep-19 13:31N 51°02' W 128°09'917.6
2017-Sep-19 13:00N 51°01' W 127°55'612.2
2017-Sep-19 12:30N 50°59' W 127°46'1918.5
2017-Sep-19 11:30N 50°48' W 127°22'918.8
2017-Sep-19 11:00N 50°45' W 127°08'918.3
2017-Sep-19 10:30N 50°41' W 126°55'917.9
2017-Sep-19 10:00N 50°36' W 126°43'1014.1
2017-Sep-19 09:19N 50°30' W 126°31'4216.3
2017-Sep-19 06:45N 50°20' W 125°27'414.7
2017-Sep-19 06:30N 50°17' W 125°24'817.0
2017-Sep-19 06:00N 50°09' W 125°21'713.5
2017-Sep-19 05:30N 50°04' W 125°15'714.2
2017-Sep-19 05:00N 49°58' W 125°09'714.2
2017-Sep-19 04:30N 49°53' W 125°01'714.1
2017-Sep-19 04:00N 49°48' W 124°53'714.2
2017-Sep-19 03:30N 49°44' W 124°44'714.3
2017-Sep-19 03:00N 49°40' W 124°35'715.0
2017-Sep-19 02:30N 49°35' W 124°25'917.3
2017-Sep-19 02:00N 49°31' W 124°14'918.3
2017-Sep-19 01:30N 49°27' W 124°02'918.7
2017-Sep-19 01:00N 49°24' W 123°48'918.3
2017-Sep-19 00:30N 49°21' W 123°35'918.2
2017-Sep-19 00:00N 49°19' W 123°21'816.3
2017-Sep-18 23:30N 49°19' W 123°08'2 3.7
2017-Sep-18 22:58N 49°17' W 123°06'0 0.0
2017-Sep-18 22:28N 49°17' W 123°06'0 0.0
2017-Sep-18 21:58N 49°17' W 123°06'0 0.0
2017-Sep-18 21:28N 49°17' W 123°06'0 0.0
2017-Sep-18 20:58N 49°17' W 123°06'0 0.0
2017-Sep-18 20:28N 49°17' W 123°06'0 0.0
2017-Sep-18 19:58N 49°17' W 123°06'0 0.0
2017-Sep-18 19:28N 49°17' W 123°06'0 0.0
2017-Sep-18 18:58N 49°17' W 123°06'0 0.0
2017-Sep-18 18:25N 49°17' W 123°06'0 0.0
2017-Sep-18 17:58N 49°17' W 123°06'0 0.0
2017-Sep-18 17:28N 49°17' W 123°06'0 0.0
2017-Sep-18 16:58N 49°17' W 123°06'0 0.0
2017-Sep-18 16:28N 49°17' W 123°06'0 0.0
2017-Sep-18 15:58N 49°17' W 123°06'0 0.0
2017-Sep-18 15:28N 49°17' W 123°06'0 0.0
2017-Sep-18 14:58N 49°17' W 123°06'0 0.0
2017-Sep-18 14:28N 49°17' W 123°06'0 0.0
2017-Sep-18 14:00N 49°17' W 123°06'1 1.0
2017-Sep-18 13:30N 49°18' W 123°06'4 8.5
2017-Sep-18 13:00N 49°19' W 123°13'510.8
2017-Sep-18 12:30N 49°19' W 123°21'611.4
2017-Sep-18 12:00N 49°19' W 123°30'612.4
2017-Sep-18 11:30N 49°19' W 123°39'612.4
2017-Sep-18 11:00N 49°20' W 123°49'612.9
2017-Sep-18 10:30N 49°22' W 123°58'713.2
2017-Sep-18 10:00N 49°23' W 124°08'713.3
2017-Sep-18 09:30N 49°25' W 124°18'713.4
2017-Sep-18 09:00N 49°28' W 124°27'5309.5
2017-Sep-18 09:00N 49°24' W 124°24'1122.9 190 / 91008.0 5.4 12.010.216.0
2017-Sep-18 08:30N 49°33' W 124°34'713.3
2017-Sep-18 08:00N 49°38' W 124°40'3179.9
2017-Sep-18 08:00N 49°36' W 124°42'816.4 200 / 31008.0 5.4 12.010.215.0
2017-Sep-18 07:30N 49°43' W 124°47'713.7
2017-Sep-18 07:00N 49°48' W 124°55'713.2
2017-Sep-18 06:30N 49°53' W 125°02'713.2
2017-Sep-18 06:00N 49°57' W 125°09'612.7
2017-Sep-18 05:30N 50°03' W 125°14'713.4
2017-Sep-18 05:00N 50°08' W 125°21'815.4
2017-Sep-18 04:30N 50°15' W 125°24'713.5
2017-Sep-18 04:00N 50°21' W 125°30'1015.2
2017-Sep-18 03:21N 50°22' W 125°45'713.5
2017-Sep-18 02:51N 50°24' W 125°56'4115.0
2017-Sep-18 00:07N 50°41' W 126°54'317.7
2017-Sep-17 23:57N 50°42' W 126°59'817.5
2017-Sep-17 23:29N 50°46' W 127°10'817.1
2017-Sep-17 23:00N 50°49' W 127°22'917.2
2017-Sep-17 22:30N 50°52' W 127°35'917.3
2017-Sep-17 22:00N 50°57' W 127°46'714.1
2017-Sep-17 21:30N 51°01' W 127°56'816.4
2017-Sep-17 21:00N 51°04' W 128°08'816.4
2017-Sep-17 20:31N 51°07' W 128°20'815.9
2017-Sep-17 20:01N 51°09' W 128°32'3175.7
2017-Sep-17 20:00N 51°06' W 128°30'1021.6 260 / 211005.010.8 13.0 9.415.0
2017-Sep-17 19:30N 51°11' W 128°44'917.2
2017-Sep-17 19:01N 51°14' W 128°57'918.4
2017-Sep-17 18:30N 51°21' W 129°08'918.4
2017-Sep-17 18:00N 51°27' W 129°18'918.5
2017-Sep-17 17:30N 51°35' W 129°26'918.1
2017-Sep-17 17:01N 51°43' W 129°34'917.8
2017-Sep-17 16:29N 51°51' W 129°42'9517.2
2017-Sep-17 10:58N 53°15' W 130°54'1316.7
2017-Sep-17 10:13N 53°27' W 131°00'416.8
2017-Sep-17 10:00N 53°30' W 131°02'816.8
2017-Sep-17 09:30N 53°39' W 131°03'918.7
2017-Sep-17 09:00N 53°48' W 131°03'2116.1
2017-Sep-17 09:00N 53°48' W 131°00'1019.6 110 / 371001.0 2.2 12.010.215.0
2017-Sep-17 08:30N 53°57' W 131°03'918.7
2017-Sep-17 08:00N 54°07' W 131°04'919.0
2017-Sep-17 07:31N 54°16' W 131°04'918.8
2017-Sep-17 07:00N 54°25' W 131°10'1019.2
2017-Sep-17 06:30N 54°34' W 131°16'1018.2
2017-Sep-17 05:57N 54°43' W 131°09'818.2
2017-Sep-17 05:30N 54°51' W 131°06'  
Track history (hours):
 
Tides and Currents Weather Stations Pressure Air Temp Water Temp Dewpoint Dewpoint Depression Visibility Wind Speed Wind Dir Waves Ship Positions

Norwegian Sun

Operator: Norwegian Cruise Line

Last reported at 2017-Sep-26 14:30 UTC. Time now 2017-Sep-26 14:54 UTC.
Position N 51°17' W 129°00'.

Type: Passenger vessel. MMSI: 311109000.

Date/timePositionNaut miles runAvg speedWind from/ knotsBaromVisibWave heightAir tempDewpointWater temp
2017-Sep-26 14:30N 51°17' W 129°00'918.1
2017-Sep-26 14:00N 51°12' W 128°49'917.8
2017-Sep-26 13:30N 51°08' W 128°36'816.9
2017-Sep-26 13:01N 51°04' W 128°24'917.2
2017-Sep-26 12:30N 51°03' W 128°10'917.7
2017-Sep-26 12:00N 51°01' W 127°57'815.2
2017-Sep-26 11:30N 50°58' W 127°45'917.9
2017-Sep-26 11:00N 50°52' W 127°35'918.0
2017-Sep-26 10:30N 50°49' W 127°22'918.5
2017-Sep-26 10:00N 50°45' W 127°08'918.1
2017-Sep-26 09:30N 50°42' W 126°55'1018.3
2017-Sep-26 08:58N 50°35' W 126°43'1717.0
2017-Sep-26 08:00N 50°30' W 126°18'3119.1 160 / 131022.0 13.011.314.0
2017-Sep-26 06:23N 50°21' W 125°32'615.1
2017-Sep-26 05:59N 50°17' W 125°25'817.5
2017-Sep-26 05:30N 50°09' W 125°21'713.4
2017-Sep-26 05:00N 50°04' W 125°15'816.3
2017-Sep-26 04:30N 49°57' W 125°08'1019.7
2017-Sep-26 04:00N 49°51' W 124°57'1020.8
2017-Sep-26 03:30N 49°44' W 124°44'1121.8
2017-Sep-26 03:00N 49°38' W 124°30'1121.7
2017-Sep-26 02:30N 49°32' W 124°16'1121.5
2017-Sep-26 02:00N 49°27' W 124°01'1121.8
2017-Sep-26 01:30N 49°24' W 123°45'1121.7
2017-Sep-26 01:00N 49°20' W 123°30'1020.5
2017-Sep-26 00:30N 49°19' W 123°14'510.8
2017-Sep-26 00:00N 49°18' W 123°06'0 0.4
2017-Sep-25 23:30N 49°17' W 123°06'0 0.0
2017-Sep-25 23:00N 49°17' W 123°06'0 0.0
2017-Sep-25 22:30N 49°17' W 123°06'0 0.0
2017-Sep-25 22:00N 49°17' W 123°06'0 0.0
2017-Sep-25 21:30N 49°17' W 123°06'0 0.0
2017-Sep-25 21:00N 49°17' W 123°06'0 0.0
2017-Sep-25 20:30N 49°17' W 123°06'0 0.0
2017-Sep-25 20:00N 49°17' W 123°06'0 0.0
2017-Sep-25 19:30N 49°17' W 123°06'0 0.0
2017-Sep-25 19:00N 49°17' W 123°06'0 0.0
2017-Sep-25 18:30N 49°17' W 123°06'0 0.0
2017-Sep-25 18:00N 49°17' W 123°06'0 0.0
2017-Sep-25 17:30N 49°17' W 123°06'0 0.0
2017-Sep-25 17:00N 49°17' W 123°06'0 0.0
2017-Sep-25 16:30N 49°17' W 123°06'0 0.0
2017-Sep-25 16:00N 49°17' W 123°06'0 0.0
2017-Sep-25 15:30N 49°17' W 123°06'0 0.0
2017-Sep-25 15:00N 49°17' W 123°06'0 0.0
2017-Sep-25 14:30N 49°17' W 123°06'0 0.0
2017-Sep-25 14:00N 49°17' W 123°06'1 2.0
2017-Sep-25 13:30N 49°18' W 123°07'5 9.4
2017-Sep-25 13:00N 49°19' W 123°14'5 9.2
2017-Sep-25 12:30N 49°19' W 123°21'5 9.3
2017-Sep-25 12:00N 49°19' W 123°28'5 9.3
2017-Sep-25 11:30N 49°20' W 123°35'5 9.5
2017-Sep-25 11:00N 49°21' W 123°42'5 9.1
2017-Sep-25 10:30N 49°22' W 123°49'5 9.1
2017-Sep-25 10:00N 49°22' W 123°56'5298.9
2017-Sep-25 10:00N 49°18' W 123°54'815.9 130 / 13 10.8 15.013.316.0
2017-Sep-25 09:30N 49°23' W 124°03'5 9.3
2017-Sep-25 09:00N 49°24' W 124°10'5 9.4
2017-Sep-25 08:30N 49°25' W 124°17'5 9.3
2017-Sep-25 08:00N 49°27' W 124°23'5 9.2
2017-Sep-25 07:30N 49°30' W 124°29'612.1
2017-Sep-25 07:01N 49°34' W 124°35'714.1
2017-Sep-25 06:30N 49°40' W 124°42'713.8
2017-Sep-25 06:00N 49°45' W 124°50'713.8
2017-Sep-25 05:30N 49°50' W 124°57'713.5
2017-Sep-25 05:00N 49°54' W 125°05'713.1
2017-Sep-25 04:30N 49°59' W 125°12'612.4
2017-Sep-25 04:00N 50°05' W 125°16'612.9
2017-Sep-25 03:30N 50°10' W 125°22'917.4
2017-Sep-25 03:01N 50°18' W 125°25'1415.8
2017-Sep-25 02:07N 50°22' W 125°46'3617.9
2017-Sep-25 00:08N 50°32' W 126°40'414.3
2017-Sep-24 23:52N 50°35' W 126°42'817.3
2017-Sep-24 23:24N 50°40' W 126°52'818.3
2017-Sep-24 22:59N 50°43' W 127°03'918.1
2017-Sep-24 22:30N 50°46' W 127°16'918.0
2017-Sep-24 22:01N 50°50' W 127°29'918.0
2017-Sep-24 21:30N 50°55' W 127°41'714.9
2017-Sep-24 21:00N 50°59' W 127°50'815.2
2017-Sep-24 20:30N 51°02' W 128°02'917.7
2017-Sep-24 20:00N 51°05' W 128°15'917.4
2017-Sep-24 19:31N 51°08' W 128°28'917.4
2017-Sep-24 19:01N 51°11' W 128°41'917.3
2017-Sep-24 18:31N 51°14' W 128°54'917.2
2017-Sep-24 18:01N 51°18' W 129°06'816.4
2017-Sep-24 17:30N 51°24' W 129°15'816.6
2017-Sep-24 17:00N 51°31' W 129°22'816.0
2017-Sep-24 16:30N 51°38' W 129°29'918.7
2017-Sep-24 16:00N 51°45' W 129°37'1019.4
2017-Sep-24 15:30N 51°54' W 129°46'1119.3
2017-Sep-24 14:57N 52°03' W 129°54'1219.5
2017-Sep-24 14:21N 52°13' W 130°03'719.4
2017-Sep-24 14:00N 52°19' W 130°08'1019.9
2017-Sep-24 13:30N 52°29' W 130°15'1019.7
2017-Sep-24 13:00N 52°37' W 130°21'1019.6
2017-Sep-24 12:31N 52°46' W 130°28'1219.5
2017-Sep-24 11:54N 52°57' W 130°37'3318.9
2017-Sep-24 10:10N 53°26' W 131°00'318.3
2017-Sep-24 09:59N 53°30' W 131°02'918.1
2017-Sep-24 09:31N 53°38' W 131°03'918.6
2017-Sep-24 09:00N 53°48' W 131°03'918.9
2017-Sep-24 08:30N 53°57' W 131°03'1019.1
2017-Sep-24 08:01N 54°06' W 131°04'918.9
2017-Sep-24 07:30N 54°16' W 131°04'1019.2
2017-Sep-24 07:00N 54°25' W 131°10'918.0
2017-Sep-24 06:30N 54°33' W 131°16'916.3
2017-Sep-24 05:57N 54°42' W 131°11'817.5
2017-Sep-24 05:30N 54°49' W 131°05'  
2017-Sep-20 03:10N 54°23' W 131°37'318.2
2017-Sep-20 03:00N 54°23' W 131°32'918.7
2017-Sep-20 02:30N 54°22' W 131°16'918.4
2017-Sep-20 02:01N 54°16' W 131°04'1019.8
2017-Sep-20 01:30N 54°06' W 131°04'1019.9
2017-Sep-20 01:00N 53°56' W 131°03'1019.5
2017-Sep-20 00:30N 53°47' W 131°03'1019.2
2017-Sep-20 00:00N 53°37' W 131°02'1019.2
2017-Sep-19 23:30N 53°27' W 131°02'1018.9
2017-Sep-19 22:58N 53°18' W 130°57'1019.9
2017-Sep-19 22:30N 53°10' W 130°49'9919.8
2017-Sep-19 17:29N 51°42' W 129°33'1019.8
2017-Sep-19 17:00N 51°34' W 129°25'1020.2
2017-Sep-19 16:30N 51°25' W 129°16'918.6
2017-Sep-19 16:00N 51°19' W 129°05'816.6
2017-Sep-19 15:31N 51°13' W 128°57'816.0
2017-Sep-19 15:00N 51°10' W 128°44'816.0
2017-Sep-19 14:30N 51°07' W 128°32'816.0
2017-Sep-19 14:01N 51°04' W 128°21'815.6
2017-Sep-19 13:31N 51°02' W 128°09'917.6
2017-Sep-19 13:00N 51°01' W 127°55'612.2
2017-Sep-19 12:30N 50°59' W 127°46'1918.5
2017-Sep-19 11:30N 50°48' W 127°22'918.8
2017-Sep-19 11:00N 50°45' W 127°08'918.3
2017-Sep-19 10:30N 50°41' W 126°55'917.9
2017-Sep-19 10:00N 50°36' W 126°43'1014.1
2017-Sep-19 09:19N 50°30' W 126°31'4216.3
2017-Sep-19 06:45N 50°20' W 125°27'414.7
2017-Sep-19 06:30N 50°17' W 125°24'817.0
2017-Sep-19 06:00N 50°09' W 125°21'713.5
2017-Sep-19 05:30N 50°04' W 125°15'714.2
2017-Sep-19 05:00N 49°58' W 125°09'714.2
2017-Sep-19 04:30N 49°53' W 125°01'714.1
2017-Sep-19 04:00N 49°48' W 124°53'714.2
2017-Sep-19 03:30N 49°44' W 124°44'714.3
2017-Sep-19 03:00N 49°40' W 124°35'715.0
2017-Sep-19 02:30N 49°35' W 124°25'917.3
2017-Sep-19 02:00N 49°31' W 124°14'918.3
2017-Sep-19 01:30N 49°27' W 124°02'918.7
2017-Sep-19 01:00N 49°24' W 123°48'918.3
2017-Sep-19 00:30N 49°21' W 123°35'918.2
2017-Sep-19 00:00N 49°19' W 123°21'816.3
2017-Sep-18 23:30N 49°19' W 123°08'2 3.7
2017-Sep-18 22:58N 49°17' W 123°06'0 0.0
2017-Sep-18 22:28N 49°17' W 123°06'0 0.0
2017-Sep-18 21:58N 49°17' W 123°06'0 0.0
2017-Sep-18 21:28N 49°17' W 123°06'0 0.0
2017-Sep-18 20:58N 49°17' W 123°06'0 0.0
2017-Sep-18 20:28N 49°17' W 123°06'0 0.0
2017-Sep-18 19:58N 49°17' W 123°06'0 0.0
2017-Sep-18 19:28N 49°17' W 123°06'0 0.0
2017-Sep-18 18:58N 49°17' W 123°06'0 0.0
2017-Sep-18 18:25N 49°17' W 123°06'0 0.0
2017-Sep-18 17:58N 49°17' W 123°06'0 0.0
2017-Sep-18 17:28N 49°17' W 123°06'0 0.0
2017-Sep-18 16:58N 49°17' W 123°06'0 0.0
2017-Sep-18 16:28N 49°17' W 123°06'0 0.0
2017-Sep-18 15:58N 49°17' W 123°06'0 0.0
2017-Sep-18 15:28N 49°17' W 123°06'0 0.0
2017-Sep-18 14:58N 49°17' W 123°06'0 0.0
2017-Sep-18 14:28N 49°17' W 123°06'0 0.0
2017-Sep-18 14:00N 49°17' W 123°06'1 1.0
2017-Sep-18 13:30N 49°18' W 123°06'4 8.5
2017-Sep-18 13:00N 49°19' W 123°13'510.8
2017-Sep-18 12:30N 49°19' W 123°21'611.4
2017-Sep-18 12:00N 49°19' W 123°30'612.4
2017-Sep-18 11:30N 49°19' W 123°39'612.4
2017-Sep-18 11:00N 49°20' W 123°49'612.9
2017-Sep-18 10:30N 49°22' W 123°58'713.2
2017-Sep-18 10:00N 49°23' W 124°08'713.3
2017-Sep-18 09:30N 49°25' W 124°18'713.4
2017-Sep-18 09:00N 49°28' W 124°27'5309.5
2017-Sep-18 09:00N 49°24' W 124°24'1122.9 190 / 91008.0 5.4 12.010.216.0
2017-Sep-18 08:30N 49°33' W 124°34'713.3
2017-Sep-18 08:00N 49°38' W 124°40'3179.9
2017-Sep-18 08:00N 49°36' W 124°42'816.4 200 / 31008.0 5.4 12.010.215.0
2017-Sep-18 07:30N 49°43' W 124°47'713.7
2017-Sep-18 07:00N 49°48' W 124°55'713.2
2017-Sep-18 06:30N 49°53' W 125°02'713.2
2017-Sep-18 06:00N 49°57' W 125°09'612.7
2017-Sep-18 05:30N 50°03' W 125°14'713.4
2017-Sep-18 05:00N 50°08' W 125°21'815.4
2017-Sep-18 04:30N 50°15' W 125°24'713.5
2017-Sep-18 04:00N 50°21' W 125°30'1015.2
2017-Sep-18 03:21N 50°22' W 125°45'713.5
2017-Sep-18 02:51N 50°24' W 125°56'4115.0
2017-Sep-18 00:07N 50°41' W 126°54'317.7
2017-Sep-17 23:57N 50°42' W 126°59'817.5
2017-Sep-17 23:29N 50°46' W 127°10'817.1
2017-Sep-17 23:00N 50°49' W 127°22'917.2
2017-Sep-17 22:30N 50°52' W 127°35'917.3
2017-Sep-17 22:00N 50°57' W 127°46'714.1
2017-Sep-17 21:30N 51°01' W 127°56'816.4
2017-Sep-17 21:00N 51°04' W 128°08'816.4
2017-Sep-17 20:31N 51°07' W 128°20'815.9
2017-Sep-17 20:01N 51°09' W 128°32'3175.7
2017-Sep-17 20:00N 51°06' W 128°30'1021.6 260 / 211005.010.8 13.0 9.415.0
2017-Sep-17 19:30N 51°11' W 128°44'917.2
2017-Sep-17 19:01N 51°14' W 128°57'918.4
2017-Sep-17 18:30N 51°21' W 129°08'918.4
2017-Sep-17 18:00N 51°27' W 129°18'918.5
2017-Sep-17 17:30N 51°35' W 129°26'918.1
2017-Sep-17 17:01N 51°43' W 129°34'917.8
2017-Sep-17 16:29N 51°51' W 129°42'9517.2
2017-Sep-17 10:58N 53°15' W 130°54'1316.7
2017-Sep-17 10:13N 53°27' W 131°00'416.8
2017-Sep-17 10:00N 53°30' W 131°02'816.8
2017-Sep-17 09:30N 53°39' W 131°03'918.7
2017-Sep-17 09:00N 53°48' W 131°03'2116.1
2017-Sep-17 09:00N 53°48' W 131°00'1019.6 110 / 371001.0 2.2 12.010.215.0
2017-Sep-17 08:30N 53°57' W 131°03'918.7
2017-Sep-17 08:00N 54°07' W 131°04'919.0
2017-Sep-17 07:31N 54°16' W 131°04'918.8
2017-Sep-17 07:00N 54°25' W 131°10'1019.2
2017-Sep-17 06:30N 54°34' W 131°16'1018.2
2017-Sep-17 05:57N 54°43' W 131°09'818.2
2017-Sep-17 05:30N 54°51' W 131°06'  

Dump ship's entire track history